sensor_id;sensor_type;location;lat;lon;timestamp;temperature;humidity
5059;DHT22;2548;52.050;11.036;2023-06-01T00:01:30;13.80;99.90
5059;DHT22;2548;52.050;11.036;2023-06-01T00:04:01;13.80;99.90
5059;DHT22;2548;52.050;11.036;2023-06-01T00:06:29;13.60;99.90
5059;DHT22;2548;52.050;11.036;2023-06-01T00:08:58;13.50;99.90
5059;DHT22;2548;52.050;11.036;2023-06-01T00:11:26;13.50;99.90
5059;DHT22;2548;52.050;11.036;2023-06-01T00:13:53;13.40;99.90
5059;DHT22;2548;52.050;11.036;2023-06-01T00:16:21;13.30;99.90
5059;DHT22;2548;52.050;11.036;2023-06-01T00:18:49;13.20;99.90
5059;DHT22;2548;52.050;11.036;2023-06-01T00:21:20;13.10;99.90
5059;DHT22;2548;52.050;11.036;2023-06-01T00:23:47;13.00;99.90
5059;DHT22;2548;52.050;11.036;2023-06-01T00:26:15;13.00;99.90
5059;DHT22;2548;52.050;11.036;2023-06-01T00:28:48;12.90;99.90
5059;DHT22;2548;52.050;11.036;2023-06-01T00:31:15;12.90;99.90
5059;DHT22;2548;52.050;11.036;2023-06-01T00:33:43;12.90;99.90
5059;DHT22;2548;52.050;11.036;2023-06-01T00:36:10;12.90;99.90
5059;DHT22;2548;52.050;11.036;2023-06-01T00:38:39;12.80;99.90
5059;DHT22;2548;52.050;11.036;2023-06-01T00:41:07;12.80;99.90
5059;DHT22;2548;52.050;11.036;2023-06-01T00:43:34;12.70;99.90
5059;DHT22;2548;52.050;11.036;2023-06-01T00:46:02;12.70;99.90
5059;DHT22;2548;52.050;11.036;2023-06-01T00:48:31;12.70;99.90
5059;DHT22;2548;52.050;11.036;2023-06-01T00:50:58;12.60;99.90
5059;DHT22;2548;52.050;11.036;2023-06-01T00:53:26;12.60;99.90
5059;DHT22;2548;52.050;11.036;2023-06-01T00:55:54;12.50;99.90
5059;DHT22;2548;52.050;11.036;2023-06-01T00:58:22;12.40;99.90
5059;DHT22;2548;52.050;11.036;2023-06-01T01:00:49;12.30;99.90
5059;DHT22;2548;52.050;11.036;2023-06-01T01:03:20;12.30;99.90
5059;DHT22;2548;52.050;11.036;2023-06-01T01:05:47;12.20;99.90
5059;DHT22;2548;52.050;11.036;2023-06-01T01:08:21;12.10;99.90
5059;DHT22;2548;52.050;11.036;2023-06-01T01:10:59;12.10;99.90
5059;DHT22;2548;52.050;11.036;2023-06-01T01:13:29;12.10;99.90
5059;DHT22;2548;52.050;11.036;2023-06-01T01:16:01;12.00;99.90
5059;DHT22;2548;52.050;11.036;2023-06-01T01:18:35;12.00;99.90
5059;DHT22;2548;52.050;11.036;2023-06-01T01:21:04;11.90;99.90
5059;DHT22;2548;52.050;11.036;2023-06-01T01:24:02;11.90;99.90
5059;DHT22;2548;52.050;11.036;2023-06-01T01:26:46;11.80;99.90
5059;DHT22;2548;52.050;11.036;2023-06-01T01:29:19;11.80;99.90
5059;DHT22;2548;52.050;11.036;2023-06-01T01:31:49;11.80;99.90
5059;DHT22;2548;52.050;11.036;2023-06-01T01:34:18;11.80;99.90
5059;DHT22;2548;52.050;11.036;2023-06-01T01:36:46;11.80;99.90
5059;DHT22;2548;52.050;11.036;2023-06-01T01:39:14;11.70;99.90
5059;DHT22;2548;52.050;11.036;2023-06-01T01:41:41;11.70;99.90
5059;DHT22;2548;52.050;11.036;2023-06-01T01:44:09;11.70;99.90
5059;DHT22;2548;52.050;11.036;2023-06-01T01:46:46;11.60;99.90
5059;DHT22;2548;52.050;11.036;2023-06-01T01:49:18;11.60;99.90
5059;DHT22;2548;52.050;11.036;2023-06-01T01:51:50;11.60;99.90
5059;DHT22;2548;52.050;11.036;2023-06-01T01:54:19;11.60;99.90
5059;DHT22;2548;52.050;11.036;2023-06-01T01:56:49;11.60;99.90
5059;DHT22;2548;52.050;11.036;2023-06-01T01:59:18;11.60;99.90
5059;DHT22;2548;52.050;11.036;2023-06-01T02:01:47;11.60;99.90
5059;DHT22;2548;52.050;11.036;2023-06-01T02:04:14;11.50;99.90
5059;DHT22;2548;52.050;11.036;2023-06-01T02:06:42;11.50;99.90
5059;DHT22;2548;52.050;11.036;2023-06-01T02:09:10;11.40;99.90
5059;DHT22;2548;52.050;11.036;2023-06-01T02:11:37;11.40;99.90
5059;DHT22;2548;52.050;11.036;2023-06-01T02:14:05;11.30;99.90
5059;DHT22;2548;52.050;11.036;2023-06-01T02:16:33;11.30;99.90
5059;DHT22;2548;52.050;11.036;2023-06-01T02:19:02;11.30;99.90
5059;DHT22;2548;52.050;11.036;2023-06-01T02:21:29;11.20;99.90
5059;DHT22;2548;52.050;11.036;2023-06-01T02:24:01;11.20;99.90
5059;DHT22;2548;52.050;11.036;2023-06-01T02:26:31;11.10;99.90
5059;DHT22;2548;52.050;11.036;2023-06-01T02:28:59;11.10;99.90
5059;DHT22;2548;52.050;11.036;2023-06-01T02:31:28;11.00;99.90
5059;DHT22;2548;52.050;11.036;2023-06-01T02:33:56;11.00;99.90
5059;DHT22;2548;52.050;11.036;2023-06-01T02:36:25;10.90;99.90
5059;DHT22;2548;52.050;11.036;2023-06-01T02:38:53;10.90;99.90
5059;DHT22;2548;52.050;11.036;2023-06-01T02:41:21;10.90;99.90
5059;DHT22;2548;52.050;11.036;2023-06-01T02:43:48;10.80;99.90
5059;DHT22;2548;52.050;11.036;2023-06-01T02:46:17;10.70;99.90
5059;DHT22;2548;52.050;11.036;2023-06-01T02:48:44;10.80;99.90
5059;DHT22;2548;52.050;11.036;2023-06-01T02:51:13;10.70;99.90
5059;DHT22;2548;52.050;11.036;2023-06-01T02:53:45;10.70;99.90
5059;DHT22;2548;52.050;11.036;2023-06-01T02:56:13;10.70;99.90
5059;DHT22;2548;52.050;11.036;2023-06-01T02:58:48;10.70;99.90
5059;DHT22;2548;52.050;11.036;2023-06-01T03:01:21;10.60;99.90
5059;DHT22;2548;52.050;11.036;2023-06-01T03:03:49;10.60;99.90
5059;DHT22;2548;52.050;11.036;2023-06-01T03:06:18;10.60;99.90
5059;DHT22;2548;52.050;11.036;2023-06-01T03:09:07;10.70;99.90
5059;DHT22;2548;52.050;11.036;2023-06-01T03:11:57;10.70;99.90
5059;DHT22;2548;52.050;11.036;2023-06-01T03:14:26;10.70;99.90
5059;DHT22;2548;52.050;11.036;2023-06-01T03:16:54;10.70;99.90
5059;DHT22;2548;52.050;11.036;2023-06-01T03:19:22;10.70;99.90
5059;DHT22;2548;52.050;11.036;2023-06-01T03:21:53;10.80;99.90
5059;DHT22;2548;52.050;11.036;2023-06-01T03:24:23;10.80;99.90
5059;DHT22;2548;52.050;11.036;2023-06-01T03:26:53;10.80;99.90
5059;DHT22;2548;52.050;11.036;2023-06-01T03:29:21;10.80;99.90
5059;DHT22;2548;52.050;11.036;2023-06-01T03:31:49;10.80;99.90
5059;DHT22;2548;52.050;11.036;2023-06-01T03:34:20;10.80;99.90
5059;DHT22;2548;52.050;11.036;2023-06-01T03:36:47;10.80;99.90
5059;DHT22;2548;52.050;11.036;2023-06-01T03:39:15;10.80;99.90
5059;DHT22;2548;52.050;11.036;2023-06-01T03:41:45;10.80;99.90
5059;DHT22;2548;52.050;11.036;2023-06-01T03:44:12;10.80;99.90
5059;DHT22;2548;52.050;11.036;2023-06-01T03:46:41;10.80;99.90
5059;DHT22;2548;52.050;11.036;2023-06-01T03:49:08;10.70;99.90
5059;DHT22;2548;52.050;11.036;2023-06-01T03:51:36;10.70;99.90
5059;DHT22;2548;52.050;11.036;2023-06-01T03:54:04;10.60;99.90
5059;DHT22;2548;52.050;11.036;2023-06-01T03:56:32;10.50;99.90
5059;DHT22;2548;52.050;11.036;2023-06-01T03:59:03;10.40;99.90
5059;DHT22;2548;52.050;11.036;2023-06-01T04:01:32;10.30;99.90
5059;DHT22;2548;52.050;11.036;2023-06-01T04:04:00;10.30;99.90
5059;DHT22;2548;52.050;11.036;2023-06-01T04:06:30;10.40;99.90
5059;DHT22;2548;52.050;11.036;2023-06-01T04:09:03;10.50;99.90
5059;DHT22;2548;52.050;11.036;2023-06-01T04:11:33;10.50;99.90
5059;DHT22;2548;52.050;11.036;2023-06-01T04:14:02;10.50;99.90
5059;DHT22;2548;52.050;11.036;2023-06-01T04:16:30;10.50;99.90
5059;DHT22;2548;52.050;11.036;2023-06-01T04:18:57;10.40;99.90
5059;DHT22;2548;52.050;11.036;2023-06-01T04:21:28;10.50;99.90
5059;DHT22;2548;52.050;11.036;2023-06-01T04:23:55;10.40;99.90
5059;DHT22;2548;52.050;11.036;2023-06-01T04:26:23;10.40;99.90
5059;DHT22;2548;52.050;11.036;2023-06-01T04:28:51;10.40;99.90
5059;DHT22;2548;52.050;11.036;2023-06-01T04:31:24;10.40;99.90
5059;DHT22;2548;52.050;11.036;2023-06-01T04:33:52;10.50;99.90
5059;DHT22;2548;52.050;11.036;2023-06-01T04:36:24;10.60;99.90
5059;DHT22;2548;52.050;11.036;2023-06-01T04:38:56;10.60;99.90
5059;DHT22;2548;52.050;11.036;2023-06-01T04:41:24;10.60;99.90
5059;DHT22;2548;52.050;11.036;2023-06-01T04:43:52;10.60;99.90
5059;DHT22;2548;52.050;11.036;2023-06-01T04:46:21;10.60;99.90
5059;DHT22;2548;52.050;11.036;2023-06-01T04:48:52;10.60;99.90
5059;DHT22;2548;52.050;11.036;2023-06-01T04:51:21;10.60;99.90
5059;DHT22;2548;52.050;11.036;2023-06-01T04:53:51;10.60;99.90
5059;DHT22;2548;52.050;11.036;2023-06-01T04:56:19;10.70;99.90
5059;DHT22;2548;52.050;11.036;2023-06-01T04:58:50;10.70;99.90
5059;DHT22;2548;52.050;11.036;2023-06-01T05:01:20;10.60;99.90
5059;DHT22;2548;52.050;11.036;2023-06-01T05:03:53;10.70;99.90
5059;DHT22;2548;52.050;11.036;2023-06-01T05:06:22;10.70;99.90
5059;DHT22;2548;52.050;11.036;2023-06-01T05:08:51;10.70;99.90
5059;DHT22;2548;52.050;11.036;2023-06-01T05:11:19;10.80;99.90
5059;DHT22;2548;52.050;11.036;2023-06-01T05:13:47;10.80;99.90
5059;DHT22;2548;52.050;11.036;2023-06-01T05:16:15;10.80;99.90
5059;DHT22;2548;52.050;11.036;2023-06-01T05:18:42;10.90;99.90
5059;DHT22;2548;52.050;11.036;2023-06-01T05:21:11;10.90;99.90
5059;DHT22;2548;52.050;11.036;2023-06-01T05:23:38;10.90;99.90
5059;DHT22;2548;52.050;11.036;2023-06-01T05:26:06;10.90;99.90
5059;DHT22;2548;52.050;11.036;2023-06-01T05:28:35;11.00;99.90
5059;DHT22;2548;52.050;11.036;2023-06-01T05:31:04;11.00;99.90
5059;DHT22;2548;52.050;11.036;2023-06-01T05:33:36;11.00;99.90
5059;DHT22;2548;52.050;11.036;2023-06-01T05:36:04;11.00;99.90
5059;DHT22;2548;52.050;11.036;2023-06-01T05:38:34;10.90;99.90
5059;DHT22;2548;52.050;11.036;2023-06-01T05:41:01;10.90;99.90
5059;DHT22;2548;52.050;11.036;2023-06-01T05:43:29;10.80;99.90
5059;DHT22;2548;52.050;11.036;2023-06-01T05:45:56;10.80;99.90
5059;DHT22;2548;52.050;11.036;2023-06-01T05:48:24;10.80;99.90
5059;DHT22;2548;52.050;11.036;2023-06-01T05:50:54;10.90;99.90
5059;DHT22;2548;52.050;11.036;2023-06-01T05:53:21;10.90;99.90
5059;DHT22;2548;52.050;11.036;2023-06-01T05:55:52;11.00;99.90
5059;DHT22;2548;52.050;11.036;2023-06-01T05:58:20;10.90;99.90
5059;DHT22;2548;52.050;11.036;2023-06-01T06:00:48;11.00;99.90
5059;DHT22;2548;52.050;11.036;2023-06-01T06:03:16;11.10;99.90
5059;DHT22;2548;52.050;11.036;2023-06-01T06:05:44;11.10;99.90
5059;DHT22;2548;52.050;11.036;2023-06-01T06:08:11;11.10;99.90
5059;DHT22;2548;52.050;11.036;2023-06-01T06:10:39;11.20;99.90
5059;DHT22;2548;52.050;11.036;2023-06-01T06:13:09;11.20;99.90
5059;DHT22;2548;52.050;11.036;2023-06-01T06:15:36;11.20;99.90
5059;DHT22;2548;52.050;11.036;2023-06-01T06:18:04;11.30;99.90
5059;DHT22;2548;52.050;11.036;2023-06-01T06:20:31;11.40;99.90
5059;DHT22;2548;52.050;11.036;2023-06-01T06:22:59;11.40;99.90
5059;DHT22;2548;52.050;11.036;2023-06-01T06:25:26;11.40;99.90
5059;DHT22;2548;52.050;11.036;2023-06-01T06:27:54;11.40;99.90
5059;DHT22;2548;52.050;11.036;2023-06-01T06:30:23;11.30;99.90
5059;DHT22;2548;52.050;11.036;2023-06-01T06:32:51;11.30;99.90
5059;DHT22;2548;52.050;11.036;2023-06-01T06:35:18;11.30;99.90
5059;DHT22;2548;52.050;11.036;2023-06-01T06:37:46;11.40;99.90
5059;DHT22;2548;52.050;11.036;2023-06-01T06:40:13;11.50;99.90
5059;DHT22;2548;52.050;11.036;2023-06-01T06:42:41;11.60;99.90
5059;DHT22;2548;52.050;11.036;2023-06-01T06:45:09;11.50;99.90
5059;DHT22;2548;52.050;11.036;2023-06-01T06:47:38;11.60;99.90
5059;DHT22;2548;52.050;11.036;2023-06-01T06:50:06;11.60;99.90
5059;DHT22;2548;52.050;11.036;2023-06-01T06:52:34;11.60;99.90
5059;DHT22;2548;52.050;11.036;2023-06-01T06:55:02;11.60;99.90
5059;DHT22;2548;52.050;11.036;2023-06-01T06:57:29;11.50;99.90
5059;DHT22;2548;52.050;11.036;2023-06-01T06:59:56;11.60;99.90
5059;DHT22;2548;52.050;11.036;2023-06-01T07:02:24;11.60;99.90
5059;DHT22;2548;52.050;11.036;2023-06-01T07:04:53;11.60;99.90
5059;DHT22;2548;52.050;11.036;2023-06-01T07:07:21;11.70;99.90
5059;DHT22;2548;52.050;11.036;2023-06-01T07:09:48;11.70;99.90
5059;DHT22;2548;52.050;11.036;2023-06-01T07:12:16;11.80;99.90
5059;DHT22;2548;52.050;11.036;2023-06-01T07:14:43;11.90;99.90
5059;DHT22;2548;52.050;11.036;2023-06-01T07:17:11;11.90;99.90
5059;DHT22;2548;52.050;11.036;2023-06-01T07:19:38;11.90;99.90
5059;DHT22;2548;52.050;11.036;2023-06-01T07:22:07;12.00;99.90
5059;DHT22;2548;52.050;11.036;2023-06-01T07:24:35;11.90;99.90
5059;DHT22;2548;52.050;11.036;2023-06-01T07:27:02;12.00;99.90
5059;DHT22;2548;52.050;11.036;2023-06-01T07:29:31;12.00;99.90
5059;DHT22;2548;52.050;11.036;2023-06-01T07:31:59;12.00;99.90
5059;DHT22;2548;52.050;11.036;2023-06-01T07:34:26;12.00;99.90
5059;DHT22;2548;52.050;11.036;2023-06-01T07:36:54;12.00;99.90
5059;DHT22;2548;52.050;11.036;2023-06-01T07:39:26;12.00;99.90
5059;DHT22;2548;52.050;11.036;2023-06-01T07:41:53;12.00;99.90
5059;DHT22;2548;52.050;11.036;2023-06-01T07:44:21;12.00;99.90
5059;DHT22;2548;52.050;11.036;2023-06-01T07:46:49;12.00;99.90
5059;DHT22;2548;52.050;11.036;2023-06-01T07:49:16;12.00;99.90
5059;DHT22;2548;52.050;11.036;2023-06-01T07:51:44;12.00;99.90
5059;DHT22;2548;52.050;11.036;2023-06-01T07:54:11;12.00;99.90
5059;DHT22;2548;52.050;11.036;2023-06-01T07:56:40;12.00;99.90
5059;DHT22;2548;52.050;11.036;2023-06-01T07:59:08;12.00;99.90
5059;DHT22;2548;52.050;11.036;2023-06-01T08:01:36;12.10;99.90
5059;DHT22;2548;52.050;11.036;2023-06-01T08:04:04;12.10;99.90
5059;DHT22;2548;52.050;11.036;2023-06-01T08:06:31;12.10;99.90
5059;DHT22;2548;52.050;11.036;2023-06-01T08:09:02;12.10;99.90
5059;DHT22;2548;52.050;11.036;2023-06-01T08:11:29;12.10;99.90
5059;DHT22;2548;52.050;11.036;2023-06-01T08:13:59;12.20;99.90
5059;DHT22;2548;52.050;11.036;2023-06-01T08:16:29;12.20;99.90
5059;DHT22;2548;52.050;11.036;2023-06-01T08:18:56;12.20;99.90
5059;DHT22;2548;52.050;11.036;2023-06-01T08:21:25;12.30;99.90
5059;DHT22;2548;52.050;11.036;2023-06-01T08:23:53;12.50;99.90
5059;DHT22;2548;52.050;11.036;2023-06-01T08:26:22;12.60;99.90
5059;DHT22;2548;52.050;11.036;2023-06-01T08:28:51;12.70;99.90
5059;DHT22;2548;52.050;11.036;2023-06-01T08:31:21;12.80;99.90
5059;DHT22;2548;52.050;11.036;2023-06-01T08:33:50;12.90;99.90
5059;DHT22;2548;52.050;11.036;2023-06-01T08:36:19;13.10;99.90
5059;DHT22;2548;52.050;11.036;2023-06-01T08:38:49;13.20;99.90
5059;DHT22;2548;52.050;11.036;2023-06-01T08:41:22;13.20;99.90
5059;DHT22;2548;52.050;11.036;2023-06-01T08:43:54;13.20;99.90
5059;DHT22;2548;52.050;11.036;2023-06-01T08:46:25;13.40;99.90
5059;DHT22;2548;52.050;11.036;2023-06-01T08:48:54;13.50;99.90
5059;DHT22;2548;52.050;11.036;2023-06-01T08:51:22;13.50;99.90
5059;DHT22;2548;52.050;11.036;2023-06-01T08:53:51;13.50;99.90
5059;DHT22;2548;52.050;11.036;2023-06-01T08:56:19;13.40;99.90
5059;DHT22;2548;52.050;11.036;2023-06-01T08:58:47;13.50;99.90
5059;DHT22;2548;52.050;11.036;2023-06-01T09:01:17;13.70;99.90
5059;DHT22;2548;52.050;11.036;2023-06-01T09:03:48;13.60;99.90
5059;DHT22;2548;52.050;11.036;2023-06-01T09:06:16;13.70;99.90
5059;DHT22;2548;52.050;11.036;2023-06-01T09:08:44;13.70;99.90
5059;DHT22;2548;52.050;11.036;2023-06-01T09:11:12;13.90;99.90
5059;DHT22;2548;52.050;11.036;2023-06-01T09:13:40;14.00;99.90
5059;DHT22;2548;52.050;11.036;2023-06-01T09:16:08;14.20;99.90
5059;DHT22;2548;52.050;11.036;2023-06-01T09:18:36;14.20;99.90
5059;DHT22;2548;52.050;11.036;2023-06-01T09:21:12;14.30;99.90
5059;DHT22;2548;52.050;11.036;2023-06-01T09:23:40;14.40;99.90
5059;DHT22;2548;52.050;11.036;2023-06-01T09:26:09;14.40;99.90
5059;DHT22;2548;52.050;11.036;2023-06-01T09:28:53;14.50;99.90
5059;DHT22;2548;52.050;11.036;2023-06-01T09:31:37;14.60;99.90
5059;DHT22;2548;52.050;11.036;2023-06-01T09:34:06;14.60;99.90
5059;DHT22;2548;52.050;11.036;2023-06-01T09:36:35;14.70;99.90
5059;DHT22;2548;52.050;11.036;2023-06-01T09:39:04;14.90;99.90
5059;DHT22;2548;52.050;11.036;2023-06-01T09:41:49;14.90;99.90
5059;DHT22;2548;52.050;11.036;2023-06-01T09:44:25;14.90;99.90
5059;DHT22;2548;52.050;11.036;2023-06-01T09:46:54;15.00;99.90
5059;DHT22;2548;52.050;11.036;2023-06-01T09:49:23;15.20;99.90
5059;DHT22;2548;52.050;11.036;2023-06-01T09:52:07;15.30;99.90
5059;DHT22;2548;52.050;11.036;2023-06-01T09:54:37;15.50;99.90
5059;DHT22;2548;52.050;11.036;2023-06-01T09:57:06;15.70;99.90
5059;DHT22;2548;52.050;11.036;2023-06-01T09:59:38;15.80;99.90
5059;DHT22;2548;52.050;11.036;2023-06-01T10:02:10;15.80;99.90
5059;DHT22;2548;52.050;11.036;2023-06-01T10:04:40;15.70;99.90
5059;DHT22;2548;52.050;11.036;2023-06-01T10:07:08;15.70;99.90
5059;DHT22;2548;52.050;11.036;2023-06-01T10:09:39;15.80;99.90
5059;DHT22;2548;52.050;11.036;2023-06-01T10:12:08;15.80;99.90
5059;DHT22;2548;52.050;11.036;2023-06-01T10:14:36;15.90;99.90
5059;DHT22;2548;52.050;11.036;2023-06-01T10:17:05;16.20;99.90
5059;DHT22;2548;52.050;11.036;2023-06-01T10:19:35;16.40;99.90
5059;DHT22;2548;52.050;11.036;2023-06-01T10:22:04;16.60;99.90
5059;DHT22;2548;52.050;11.036;2023-06-01T10:24:34;16.40;99.90
5059;DHT22;2548;52.050;11.036;2023-06-01T10:27:13;16.40;99.90
5059;DHT22;2548;52.050;11.036;2023-06-01T10:29:42;16.30;99.90
5059;DHT22;2548;52.050;11.036;2023-06-01T10:32:40;16.40;99.90
5059;DHT22;2548;52.050;11.036;2023-06-01T10:35:08;16.50;99.90
5059;DHT22;2548;52.050;11.036;2023-06-01T10:37:36;16.70;99.90
5059;DHT22;2548;52.050;11.036;2023-06-01T10:40:19;16.60;99.90
5059;DHT22;2548;52.050;11.036;2023-06-01T10:42:48;16.60;99.90
5059;DHT22;2548;52.050;11.036;2023-06-01T10:45:37;16.80;99.90
5059;DHT22;2548;52.050;11.036;2023-06-01T10:48:06;16.90;99.90
5059;DHT22;2548;52.050;11.036;2023-06-01T10:50:36;17.20;99.90
5059;DHT22;2548;52.050;11.036;2023-06-01T10:53:24;17.30;99.90
5059;DHT22;2548;52.050;11.036;2023-06-01T10:56:20;17.00;99.90
5059;DHT22;2548;52.050;11.036;2023-06-01T10:59:11;17.10;99.90
5059;DHT22;2548;52.050;11.036;2023-06-01T11:01:39;17.10;99.90
5059;DHT22;2548;52.050;11.036;2023-06-01T11:04:07;17.10;99.90
5059;DHT22;2548;52.050;11.036;2023-06-01T11:06:36;17.20;99.90
5059;DHT22;2548;52.050;11.036;2023-06-01T11:09:06;17.20;99.90
5059;DHT22;2548;52.050;11.036;2023-06-01T11:11:59;17.40;99.90
5059;DHT22;2548;52.050;11.036;2023-06-01T11:14:28;17.50;99.90
5059;DHT22;2548;52.050;11.036;2023-06-01T11:17:28;17.60;99.90
5059;DHT22;2548;52.050;11.036;2023-06-01T11:20:00;17.70;99.90
5059;DHT22;2548;52.050;11.036;2023-06-01T11:22:35;17.60;99.90
5059;DHT22;2548;52.050;11.036;2023-06-01T11:25:05;17.80;99.90
5059;DHT22;2548;52.050;11.036;2023-06-01T11:27:35;17.90;99.90
5059;DHT22;2548;52.050;11.036;2023-06-01T11:30:04;17.90;99.90
5059;DHT22;2548;52.050;11.036;2023-06-01T11:32:33;18.00;99.90
5059;DHT22;2548;52.050;11.036;2023-06-01T11:35:16;18.10;99.90
5059;DHT22;2548;52.050;11.036;2023-06-01T11:37:44;18.00;99.90
5059;DHT22;2548;52.050;11.036;2023-06-01T11:40:13;18.20;99.90
5059;DHT22;2548;52.050;11.036;2023-06-01T11:42:42;18.10;99.90
5059;DHT22;2548;52.050;11.036;2023-06-01T11:45:15;17.80;99.90
5059;DHT22;2548;52.050;11.036;2023-06-01T11:47:43;17.90;99.90
5059;DHT22;2548;52.050;11.036;2023-06-01T11:50:20;18.00;99.90
5059;DHT22;2548;52.050;11.036;2023-06-01T11:52:50;18.10;99.90
5059;DHT22;2548;52.050;11.036;2023-06-01T11:55:18;18.40;99.90
5059;DHT22;2548;52.050;11.036;2023-06-01T11:57:47;18.50;99.90
5059;DHT22;2548;52.050;11.036;2023-06-01T12:00:14;18.60;99.90
5059;DHT22;2548;52.050;11.036;2023-06-01T12:02:42;18.50;99.90
5059;DHT22;2548;52.050;11.036;2023-06-01T12:05:10;18.30;99.90
5059;DHT22;2548;52.050;11.036;2023-06-01T12:07:43;18.50;99.90
5059;DHT22;2548;52.050;11.036;2023-06-01T12:10:13;18.50;99.90
5059;DHT22;2548;52.050;11.036;2023-06-01T12:12:43;18.50;99.90
5059;DHT22;2548;52.050;11.036;2023-06-01T12:15:13;18.50;99.90
5059;DHT22;2548;52.050;11.036;2023-06-01T12:17:47;18.50;99.90
5059;DHT22;2548;52.050;11.036;2023-06-01T12:20:26;18.30;99.90
5059;DHT22;2548;52.050;11.036;2023-06-01T12:22:54;18.20;99.90
5059;DHT22;2548;52.050;11.036;2023-06-01T12:25:22;18.00;99.90
5059;DHT22;2548;52.050;11.036;2023-06-01T12:28:03;18.00;99.90
5059;DHT22;2548;52.050;11.036;2023-06-01T12:30:32;18.10;99.90
5059;DHT22;2548;52.050;11.036;2023-06-01T12:33:00;18.00;99.90
5059;DHT22;2548;52.050;11.036;2023-06-01T12:35:27;18.10;99.90
5059;DHT22;2548;52.050;11.036;2023-06-01T12:38:04;18.10;99.90
5059;DHT22;2548;52.050;11.036;2023-06-01T12:40:33;18.30;99.90
5059;DHT22;2548;52.050;11.036;2023-06-01T12:43:01;18.40;99.90
5059;DHT22;2548;52.050;11.036;2023-06-01T12:45:36;18.30;99.90
5059;DHT22;2548;52.050;11.036;2023-06-01T12:48:04;18.20;99.90
5059;DHT22;2548;52.050;11.036;2023-06-01T12:50:32;18.30;99.90
5059;DHT22;2548;52.050;11.036;2023-06-01T12:52:59;18.40;99.90
5059;DHT22;2548;52.050;11.036;2023-06-01T12:55:28;18.60;99.90
5059;DHT22;2548;52.050;11.036;2023-06-01T12:57:56;18.50;99.90
5059;DHT22;2548;52.050;11.036;2023-06-01T13:00:23;18.40;99.90
5059;DHT22;2548;52.050;11.036;2023-06-01T13:02:52;18.30;99.90
5059;DHT22;2548;52.050;11.036;2023-06-01T13:05:20;18.40;99.90
5059;DHT22;2548;52.050;11.036;2023-06-01T13:07:48;18.30;99.90
5059;DHT22;2548;52.050;11.036;2023-06-01T13:10:15;18.40;99.90
5059;DHT22;2548;52.050;11.036;2023-06-01T13:12:43;18.50;99.90
5059;DHT22;2548;52.050;11.036;2023-06-01T13:15:10;18.50;99.90
5059;DHT22;2548;52.050;11.036;2023-06-01T13:17:39;18.60;99.90
5059;DHT22;2548;52.050;11.036;2023-06-01T13:20:09;18.50;99.90
5059;DHT22;2548;52.050;11.036;2023-06-01T13:22:38;18.40;99.90
5059;DHT22;2548;52.050;11.036;2023-06-01T13:25:05;18.40;99.90
5059;DHT22;2548;52.050;11.036;2023-06-01T13:27:35;18.40;99.90
5059;DHT22;2548;52.050;11.036;2023-06-01T13:30:03;18.20;99.90
5059;DHT22;2548;52.050;11.036;2023-06-01T13:32:31;18.40;99.90
5059;DHT22;2548;52.050;11.036;2023-06-01T13:34:59;18.20;99.90
5059;DHT22;2548;52.050;11.036;2023-06-01T13:37:28;18.30;99.90
5059;DHT22;2548;52.050;11.036;2023-06-01T13:39:55;18.40;99.90
5059;DHT22;2548;52.050;11.036;2023-06-01T13:42:23;18.60;99.90
5059;DHT22;2548;52.050;11.036;2023-06-01T13:44:50;18.80;99.90
5059;DHT22;2548;52.050;11.036;2023-06-01T13:47:18;18.80;99.90
5059;DHT22;2548;52.050;11.036;2023-06-01T13:49:45;18.90;99.90
5059;DHT22;2548;52.050;11.036;2023-06-01T13:52:13;18.80;99.90
5059;DHT22;2548;52.050;11.036;2023-06-01T13:54:42;18.80;99.90
5059;DHT22;2548;52.050;11.036;2023-06-01T13:57:09;18.90;99.90
5059;DHT22;2548;52.050;11.036;2023-06-01T13:59:37;18.90;99.90
5059;DHT22;2548;52.050;11.036;2023-06-01T14:02:05;18.90;99.90
5059;DHT22;2548;52.050;11.036;2023-06-01T14:04:34;18.80;99.90
5059;DHT22;2548;52.050;11.036;2023-06-01T14:07:02;18.80;99.90
5059;DHT22;2548;52.050;11.036;2023-06-01T14:09:29;18.90;99.90
5059;DHT22;2548;52.050;11.036;2023-06-01T14:11:58;19.00;99.90
5059;DHT22;2548;52.050;11.036;2023-06-01T14:14:25;19.00;99.90
5059;DHT22;2548;52.050;11.036;2023-06-01T14:16:56;18.80;99.90
5059;DHT22;2548;52.050;11.036;2023-06-01T14:19:24;18.60;99.90
5059;DHT22;2548;52.050;11.036;2023-06-01T14:21:53;18.40;99.90
5059;DHT22;2548;52.050;11.036;2023-06-01T14:24:21;18.30;99.90
5059;DHT22;2548;52.050;11.036;2023-06-01T14:26:48;18.40;99.90
5059;DHT22;2548;52.050;11.036;2023-06-01T14:29:17;18.50;99.90
5059;DHT22;2548;52.050;11.036;2023-06-01T14:31:45;18.60;99.90
5059;DHT22;2548;52.050;11.036;2023-06-01T14:34:13;18.50;99.90
5059;DHT22;2548;52.050;11.036;2023-06-01T14:36:40;18.30;99.90
5059;DHT22;2548;52.050;11.036;2023-06-01T14:39:08;18.40;99.90
5059;DHT22;2548;52.050;11.036;2023-06-01T14:41:39;18.40;99.90
5059;DHT22;2548;52.050;11.036;2023-06-01T14:44:13;18.30;99.90
5059;DHT22;2548;52.050;11.036;2023-06-01T14:46:42;18.20;99.90
5059;DHT22;2548;52.050;11.036;2023-06-01T14:49:10;18.20;99.90
5059;DHT22;2548;52.050;11.036;2023-06-01T14:51:40;18.10;99.90
5059;DHT22;2548;52.050;11.036;2023-06-01T14:54:08;18.30;99.90
5059;DHT22;2548;52.050;11.036;2023-06-01T14:56:35;18.40;99.90
5059;DHT22;2548;52.050;11.036;2023-06-01T14:59:06;18.70;99.90
5059;DHT22;2548;52.050;11.036;2023-06-01T15:01:34;18.80;99.90
5059;DHT22;2548;52.050;11.036;2023-06-01T15:04:03;18.80;99.90
5059;DHT22;2548;52.050;11.036;2023-06-01T15:06:33;18.70;99.90
5059;DHT22;2548;52.050;11.036;2023-06-01T15:09:02;18.60;99.90
5059;DHT22;2548;52.050;11.036;2023-06-01T15:11:30;18.70;99.90
5059;DHT22;2548;52.050;11.036;2023-06-01T15:13:58;18.70;99.90
5059;DHT22;2548;52.050;11.036;2023-06-01T15:16:28;18.80;99.90
5059;DHT22;2548;52.050;11.036;2023-06-01T15:19:12;18.70;99.90
5059;DHT22;2548;52.050;11.036;2023-06-01T15:21:40;18.50;99.90
5059;DHT22;2548;52.050;11.036;2023-06-01T15:24:07;18.50;99.90
5059;DHT22;2548;52.050;11.036;2023-06-01T15:26:35;18.70;99.90
5059;DHT22;2548;52.050;11.036;2023-06-01T15:29:06;18.80;99.90
5059;DHT22;2548;52.050;11.036;2023-06-01T15:31:34;18.80;99.90
5059;DHT22;2548;52.050;11.036;2023-06-01T15:34:01;19.00;99.90
5059;DHT22;2548;52.050;11.036;2023-06-01T15:36:32;19.00;99.90
5059;DHT22;2548;52.050;11.036;2023-06-01T15:39:02;18.90;99.90
5059;DHT22;2548;52.050;11.036;2023-06-01T15:41:30;18.90;99.90
5059;DHT22;2548;52.050;11.036;2023-06-01T15:43:57;18.90;99.90
5059;DHT22;2548;52.050;11.036;2023-06-01T15:46:26;18.80;99.90
5059;DHT22;2548;52.050;11.036;2023-06-01T15:48:54;18.50;99.90
5059;DHT22;2548;52.050;11.036;2023-06-01T15:51:25;18.50;99.90
5059;DHT22;2548;52.050;11.036;2023-06-01T15:53:54;18.60;99.90
5059;DHT22;2548;52.050;11.036;2023-06-01T15:56:21;18.50;99.90
5059;DHT22;2548;52.050;11.036;2023-06-01T15:58:49;18.50;99.90
5059;DHT22;2548;52.050;11.036;2023-06-01T16:01:26;18.50;99.90